CGYQB CYXU-CYXU
Flight info
| Callsign | CGYQB |
|---|---|
| Flight time | 0h 4m |
| Altitude | 2000 |
| Route | CYXU/33 |
| Aircraft | C172 |
Departure
| Time | 2026-04-21 00:56 |
|---|---|
| Airport | London International Airport (CYXU) |
Arrival
| Time | 2026-04-21 01:01 |
|---|---|
| Airport | London International Airport (CYXU) |
| Time | Latitude | Longitude | Altitude | Speed | Heading |
|---|---|---|---|---|---|
| 2026-04-21 00:46 | 43.03217 | -81.15338 | 903 ft | 0 kts | 314° |
| 2026-04-21 00:54 | 43.03227 | -81.15292 | 903 ft | 10 kts | 70° |
| 2026-04-21 00:54 | 43.03272 | -81.15196 | 903 ft | 7 kts | 51° |
| 2026-04-21 00:55 | 43.03315 | -81.15120 | 903 ft | 14 kts | 50° |
| 2026-04-21 00:55 | 43.03333 | -81.15093 | 903 ft | 0 kts | 49° |
| 2026-04-21 00:55 | 43.03343 | -81.15082 | 904 ft | 5 kts | 38° |
| 2026-04-21 00:55 | 43.03416 | -81.15034 | 905 ft | 21 kts | 324° |
| 2026-04-21 00:56 | 43.03688 | -81.15339 | 947 ft | 69 kts | 320° |
| 2026-04-21 00:56 | 43.04077 | -81.15762 | 1177 ft | 76 kts | 316° |
| 2026-04-21 00:56 | 43.04478 | -81.16243 | 1439 ft | 78 kts | 317° |
| 2026-04-21 00:56 | 43.04941 | -81.16673 | 1657 ft | 88 kts | 346° |
| 2026-04-21 00:57 | 43.05527 | -81.16433 | 1929 ft | 94 kts | 45° |
| 2026-04-21 00:57 | 43.06000 | -81.15737 | 1980 ft | 98 kts | 44° |
| 2026-04-21 00:57 | 43.06434 | -81.15041 | 2037 ft | 93 kts | 65° |
| 2026-04-21 00:57 | 43.06240 | -81.14259 | 2005 ft | 97 kts | 130° |
| 2026-04-21 00:58 | 43.05825 | -81.13566 | 2035 ft | 95 kts | 132° |
| 2026-04-21 00:58 | 43.05375 | -81.12862 | 1984 ft | 99 kts | 136° |
| 2026-04-21 00:58 | 43.04839 | -81.12242 | 1948 ft | 100 kts | 144° |
| 2026-04-21 00:58 | 43.04296 | -81.11693 | 1988 ft | 94 kts | 149° |
| 2026-04-21 00:59 | 43.03735 | -81.11233 | 1975 ft | 96 kts | 151° |
| 2026-04-21 00:59 | 43.03141 | -81.10812 | 1985 ft | 91 kts | 155° |
| 2026-04-21 00:59 | 43.02597 | -81.10378 | 1998 ft | 91 kts | 153° |
| 2026-04-21 00:59 | 43.02015 | -81.10020 | 1959 ft | 94 kts | 176° |
| 2026-04-21 01:00 | 43.01634 | -81.10258 | 1839 ft | 96 kts | 232° |
| 2026-04-21 01:00 | 43.01361 | -81.11080 | 1760 ft | 97 kts | 248° |
| 2026-04-21 01:00 | 43.01279 | -81.12019 | 1559 ft | 105 kts | 278° |
| 2026-04-21 01:00 | 43.01759 | -81.13042 | 1203 ft | 88 kts | 321° |
| 2026-04-21 01:01 | 43.02148 | -81.13497 | 1025 ft | 58 kts | 323° |
| 2026-04-21 01:01 | 43.02338 | -81.13725 | 939 ft | 55 kts | 308° |
| 2026-04-21 01:01 | 43.02612 | -81.14070 | 903 ft | 46 kts | 319° |
| 2026-04-21 01:01 | 43.02930 | -81.14447 | 1053 ft | 64 kts | 319° |
| 2026-04-21 01:02 | 43.03301 | -81.14853 | 1247 ft | 77 kts | 322° |
| 2026-04-21 01:02 | 43.03770 | -81.15401 | 1337 ft | 97 kts | 317° |
| 2026-04-21 01:02 | 43.04158 | -81.16107 | 1607 ft | 93 kts | 271° |
| 2026-04-21 01:02 | 43.03744 | -81.16622 | 1873 ft | 96 kts | 179° |
| 2026-04-21 01:03 | 43.03154 | -81.16203 | 2083 ft | 98 kts | 158° |
| 2026-04-21 01:03 | 43.02456 | -81.16245 | 2163 ft | 106 kts | 200° |
| 2026-04-21 01:03 | 43.01736 | -81.16599 | 2174 ft | 115 kts | 202° |
| 2026-04-21 01:03 | 43.01044 | -81.16973 | 2372 ft | 109 kts | 206° |
| 2026-04-21 01:04 | 43.00325 | -81.17392 | 2396 ft | 115 kts | 202° |
| 2026-04-21 01:04 | 42.99532 | -81.17336 | 2415 ft | 122 kts | 155° |
| 2026-04-21 01:04 | 42.99007 | -81.16440 | 2457 ft | 124 kts | 115° |
| 2026-04-21 01:04 | 42.98516 | -81.15511 | 2500 ft | 121 kts | 145° |
| 2026-04-21 01:05 | 42.97742 | -81.14967 | 2348 ft | 128 kts | 157° |
| 2026-04-21 01:05 | 42.96920 | -81.14466 | 2189 ft | 130 kts | 159° |
| 2026-04-21 01:05 | 42.96115 | -81.13996 | 1983 ft | 121 kts | 160° |
| 2026-04-21 01:05 | 42.95398 | -81.13586 | 2053 ft | 108 kts | 160° |
| 2026-04-21 01:06 | 42.94753 | -81.13209 | 2389 ft | 95 kts | 160° |
| 2026-04-21 01:06 | 42.94157 | -81.12751 | 2544 ft | 103 kts | 152° |
| 2026-04-21 01:06 | 42.93489 | -81.12410 | 2654 ft | 104 kts | 164° |
| 2026-04-21 01:06 | 42.92790 | -81.12051 | 2775 ft | 109 kts | 162° |
| 2026-04-21 01:07 | 42.92093 | -81.11618 | 2894 ft | 112 kts | 146° |
| 2026-04-21 01:07 | 42.91720 | -81.10680 | 3002 ft | 117 kts | 102° |
| 2026-04-21 01:07 | 42.91565 | -81.09601 | 3106 ft | 117 kts | 103° |
| 2026-04-21 01:07 | 42.91398 | -81.08512 | 3224 ft | 117 kts | 103° |
| 2026-04-21 01:08 | 42.91231 | -81.07421 | 3332 ft | 118 kts | 102° |
| 2026-04-21 01:08 | 42.91062 | -81.06325 | 3442 ft | 119 kts | 102° |
| 2026-04-21 01:08 | 42.90920 | -81.05201 | 3571 ft | 118 kts | 102° |
| 2026-04-21 01:08 | 42.90737 | -81.04121 | 3686 ft | 119 kts | 103° |
| 2026-04-21 01:09 | 42.90557 | -81.03017 | 3789 ft | 120 kts | 103° |
| 2026-04-21 01:09 | 42.90522 | -81.01842 | 3708 ft | 131 kts | 72° |
| 2026-04-21 01:09 | 42.91067 | -81.00909 | 3736 ft | 124 kts | 28° |
| 2026-04-21 01:09 | 42.91869 | -81.00779 | 3780 ft | 115 kts | 336° |
| 2026-04-21 01:10 | 42.92400 | -81.01510 | 3827 ft | 109 kts | 292° |
| 2026-04-21 01:10 | 42.92898 | -81.02296 | 3850 ft | 112 kts | 323° |
| 2026-04-21 01:10 | 42.93503 | -81.02991 | 3798 ft | 117 kts | 312° |
| 2026-04-21 01:10 | 42.94102 | -81.03813 | 3556 ft | 126 kts | 313° |
| 2026-04-21 01:11 | 42.94723 | -81.04622 | 3226 ft | 121 kts | 314° |
| 2026-04-21 01:11 | 42.95326 | -81.05385 | 2998 ft | 117 kts | 315° |
| 2026-04-21 01:11 | 42.95957 | -81.06094 | 2895 ft | 123 kts | 320° |
| 2026-04-21 01:11 | 42.96648 | -81.06836 | 2748 ft | 126 kts | 315° |
| 2026-04-21 01:12 | 42.97304 | -81.07680 | 2475 ft | 133 kts | 316° |
| 2026-04-21 01:12 | 42.98007 | -81.08528 | 2207 ft | 134 kts | 316° |
| 2026-04-21 01:12 | 42.98697 | -81.09382 | 2000 ft | 132 kts | 314° |
| 2026-04-21 01:12 | 42.99404 | -81.10170 | 1825 ft | 130 kts | 321° |
| 2026-04-21 01:13 | 43.00030 | -81.11009 | 1592 ft | 122 kts | 317° |
| 2026-04-21 01:13 | 43.00626 | -81.11704 | 1470 ft | 92 kts | 319° |
| 2026-04-21 01:13 | 43.01044 | -81.12167 | 1262 ft | 70 kts | 316° |
| 2026-04-21 01:13 | 43.01412 | -81.12632 | 1188 ft | 72 kts | 320° |
| 2026-04-21 01:14 | 43.01776 | -81.13066 | 1117 ft | 68 kts | 321° |
| 2026-04-21 01:14 | 43.02139 | -81.13498 | 1015 ft | 69 kts | 320° |
| 2026-04-21 01:14 | 43.02499 | -81.13925 | 921 ft | 69 kts | 320° |
| 2026-04-21 01:14 | 43.02775 | -81.14260 | 905 ft | 31 kts | 319° |
| 2026-04-21 01:15 | 43.02811 | -81.14300 | 905 ft | 0 kts | 327° |
| 2026-04-21 01:17 | 43.02940 | -81.14449 | 903 ft | 57 kts | 318° |
| 2026-04-21 01:17 | 43.03282 | -81.14904 | 1102 ft | 72 kts | 314° |
| 2026-04-21 01:17 | 43.03679 | -81.15448 | 1251 ft | 89 kts | 316° |
| 2026-04-21 01:17 | 43.04157 | -81.15925 | 1553 ft | 87 kts | 335° |
| 2026-04-21 01:18 | 43.04773 | -81.15992 | 1822 ft | 91 kts | 11° |
| 2026-04-21 01:18 | 43.05363 | -81.15565 | 1976 ft | 102 kts | 32° |